createdAt,value
2023-12-19T00:00:28.576Z,6.93
2023-12-19T00:02:55.753Z,6.95
2023-12-19T00:05:22.333Z,6.96
2023-12-19T00:07:48.824Z,6.95
2023-12-19T00:10:15.469Z,6.91
2023-12-19T00:12:43.669Z,6.90
2023-12-19T00:15:10.904Z,6.87
2023-12-19T00:17:37.662Z,6.89
2023-12-19T00:20:04.552Z,6.87
2023-12-19T00:22:31.531Z,6.89
2023-12-19T00:24:58.192Z,6.88
2023-12-19T00:27:24.850Z,6.88
2023-12-19T00:29:51.273Z,6.88
2023-12-19T00:32:17.740Z,6.87
2023-12-19T00:34:44.260Z,6.88
2023-12-19T00:37:10.671Z,6.90
2023-12-19T00:39:37.905Z,6.90
2023-12-19T00:42:04.581Z,6.88
2023-12-19T00:44:31.028Z,6.89
2023-12-19T00:46:57.412Z,6.89
2023-12-19T00:49:23.894Z,6.91
2023-12-19T00:51:50.342Z,6.93
2023-12-19T00:54:16.872Z,6.91
2023-12-19T00:56:43.565Z,6.93
2023-12-19T00:59:10.035Z,6.96
2023-12-19T01:01:36.713Z,6.95
2023-12-19T01:04:03.334Z,6.96
2023-12-19T01:06:30.114Z,6.96
2023-12-19T01:08:56.660Z,6.95
2023-12-19T01:11:23.140Z,6.96
2023-12-19T01:13:49.596Z,6.94
2023-12-19T01:16:17.193Z,6.94
2023-12-19T01:18:43.757Z,6.92
2023-12-19T01:21:10.252Z,6.95
2023-12-19T01:23:36.629Z,6.96
2023-12-19T01:26:09.274Z,6.95
2023-12-19T01:28:40.255Z,6.97
2023-12-19T01:31:07.181Z,6.95
2023-12-19T01:33:34.035Z,6.95
2023-12-19T01:36:03.149Z,6.98
2023-12-19T01:38:29.654Z,6.98
2023-12-19T01:40:56.118Z,6.96
2023-12-19T01:43:22.528Z,6.97
2023-12-19T01:45:51.070Z,6.96
2023-12-19T01:48:18.425Z,6.96
2023-12-19T01:50:47.375Z,6.94
2023-12-19T01:53:13.917Z,6.94
2023-12-19T01:55:41.672Z,6.92
2023-12-19T01:58:09.804Z,6.97
2023-12-19T02:00:37.429Z,6.97
2023-12-19T02:03:05.121Z,6.96
2023-12-19T02:05:37.754Z,6.97
2023-12-19T02:08:04.623Z,6.98
2023-12-19T02:10:31.106Z,6.96
2023-12-19T02:12:58.131Z,6.96
2023-12-19T02:15:24.868Z,6.99
2023-12-19T02:17:51.483Z,6.99
2023-12-19T02:20:18.139Z,7.01
2023-12-19T02:22:50.378Z,6.99
2023-12-19T02:25:18.136Z,7.00
2023-12-19T02:27:44.687Z,6.99
2023-12-19T02:30:11.405Z,7.02
2023-12-19T02:32:38.070Z,7.02
2023-12-19T02:35:04.914Z,7.00
2023-12-19T02:37:31.601Z,6.98
2023-12-19T02:39:58.098Z,7.00
2023-12-19T02:42:24.673Z,7.01
2023-12-19T02:44:51.314Z,7.03
2023-12-19T02:47:17.699Z,7.02
2023-12-19T02:49:44.144Z,7.04
2023-12-19T02:52:10.581Z,7.05
2023-12-19T02:54:37.160Z,7.06
2023-12-19T02:57:03.904Z,7.07
2023-12-19T02:59:30.310Z,7.08
2023-12-19T03:01:56.734Z,7.08
2023-12-19T03:04:23.299Z,7.08
2023-12-19T03:06:49.777Z,7.12
2023-12-19T03:09:16.185Z,7.15
2023-12-19T03:11:59.876Z,7.14
2023-12-19T03:14:26.310Z,7.15
2023-12-19T03:16:52.656Z,7.14
2023-12-19T03:19:19.227Z,7.14
2023-12-19T03:21:45.751Z,7.16
2023-12-19T03:24:12.154Z,7.14
2023-12-19T03:26:38.519Z,7.17
2023-12-19T03:29:04.898Z,7.18
2023-12-19T03:31:31.392Z,7.17
2023-12-19T03:33:58.343Z,7.20
2023-12-19T03:36:24.890Z,7.19
2023-12-19T03:38:51.363Z,7.21
2023-12-19T03:41:17.788Z,7.21
2023-12-19T03:43:44.334Z,7.21
2023-12-19T03:46:11.572Z,7.22
2023-12-19T03:48:38.333Z,7.23
2023-12-19T03:51:04.916Z,7.25
2023-12-19T03:53:31.340Z,7.26
2023-12-19T03:55:57.821Z,7.28
2023-12-19T03:58:24.265Z,7.28
2023-12-19T04:00:50.730Z,7.28
2023-12-19T04:03:17.245Z,7.28
2023-12-19T04:05:43.657Z,7.28
2023-12-19T04:08:10.092Z,7.28
2023-12-19T04:10:36.736Z,7.28
2023-12-19T04:13:03.304Z,7.31
2023-12-19T04:15:31.264Z,7.29
2023-12-19T04:17:57.709Z,7.29
2023-12-19T04:20:24.124Z,7.28
2023-12-19T04:22:50.519Z,7.28
2023-12-19T04:25:17.083Z,7.28
2023-12-19T04:27:43.557Z,7.30
2023-12-19T04:30:10.570Z,7.33
2023-12-19T04:32:37.069Z,7.32
2023-12-19T04:35:04.821Z,7.32
2023-12-19T04:37:32.309Z,7.34
2023-12-19T04:39:58.955Z,7.34
2023-12-19T04:42:25.664Z,7.33
2023-12-19T04:44:52.105Z,7.33
2023-12-19T04:47:18.530Z,7.37
2023-12-19T04:49:45.176Z,7.38
2023-12-19T04:52:11.779Z,7.40
2023-12-19T04:54:38.414Z,7.42
2023-12-19T04:57:05.110Z,7.44
2023-12-19T04:59:33.068Z,7.46
2023-12-19T05:01:59.553Z,7.47
2023-12-19T05:04:25.977Z,7.47
2023-12-19T05:06:52.874Z,7.47
2023-12-19T05:09:19.989Z,7.51
2023-12-19T05:11:46.435Z,7.50
2023-12-19T05:14:12.916Z,7.51
2023-12-19T05:16:39.354Z,7.53
2023-12-19T05:19:05.900Z,7.53
2023-12-19T05:21:39.458Z,7.51
2023-12-19T05:24:06.794Z,7.52
2023-12-19T05:26:33.724Z,7.55
2023-12-19T05:29:00.140Z,7.54
2023-12-19T05:31:26.843Z,7.55
2023-12-19T05:33:53.510Z,7.57
2023-12-19T05:36:20.125Z,7.56
2023-12-19T05:38:46.528Z,7.55
2023-12-19T05:41:16.181Z,7.56
2023-12-19T05:43:42.781Z,7.56
2023-12-19T05:46:09.318Z,7.57
2023-12-19T05:48:35.849Z,7.59
2023-12-19T05:51:04.373Z,7.58
2023-12-19T05:53:30.838Z,7.60
2023-12-19T05:55:57.323Z,7.61
2023-12-19T05:58:23.723Z,7.62
2023-12-19T06:00:50.547Z,7.63
2023-12-19T06:03:17.187Z,7.65
2023-12-19T06:05:43.661Z,7.66
2023-12-19T06:08:10.150Z,7.65
2023-12-19T06:10:36.556Z,7.65
2023-12-19T06:13:03.249Z,7.68
2023-12-19T06:15:29.797Z,7.68
2023-12-19T06:17:56.284Z,7.69
2023-12-19T06:20:22.939Z,7.72
2023-12-19T06:22:49.452Z,7.71
2023-12-19T06:25:15.881Z,7.72
2023-12-19T06:27:43.798Z,7.75
2023-12-19T06:30:19.760Z,7.76
2023-12-19T06:32:53.483Z,7.76
2023-12-19T06:35:20.008Z,7.78
2023-12-19T06:37:46.626Z,7.78
2023-12-19T06:40:13.456Z,7.77
2023-12-19T06:42:39.966Z,7.78
2023-12-19T06:45:07.105Z,7.77
2023-12-19T06:47:35.066Z,7.79
2023-12-19T06:50:01.498Z,7.80
2023-12-19T06:52:29.235Z,7.83
2023-12-19T06:54:55.772Z,7.83
2023-12-19T06:57:22.249Z,7.85
2023-12-19T06:59:48.947Z,7.85
2023-12-19T07:02:15.531Z,7.87
2023-12-19T07:04:42.011Z,7.86
2023-12-19T07:07:10.004Z,7.85
2023-12-19T07:09:39.479Z,7.85
2023-12-19T07:12:06.396Z,7.86
2023-12-19T07:14:32.895Z,7.86
2023-12-19T07:16:59.348Z,7.86
2023-12-19T07:19:25.967Z,7.86
2023-12-19T07:21:52.657Z,7.88
2023-12-19T07:24:19.168Z,7.89
2023-12-19T07:26:45.540Z,7.90
2023-12-19T07:29:12.048Z,7.92
2023-12-19T07:31:39.563Z,7.92
2023-12-19T07:34:06.847Z,7.93
2023-12-19T07:36:34.232Z,7.94
2023-12-19T07:39:01.192Z,7.93
2023-12-19T07:41:28.368Z,7.96
2023-12-19T07:43:55.781Z,7.98
2023-12-19T07:46:22.753Z,7.99
2023-12-19T07:48:49.573Z,7.99
2023-12-19T07:51:25.693Z,8.01
2023-12-19T07:53:52.411Z,8.02
2023-12-19T07:56:18.921Z,8.02
2023-12-19T07:58:45.369Z,8.02
2023-12-19T08:01:14.045Z,8.02
2023-12-19T08:03:42.559Z,8.03
2023-12-19T08:06:09.250Z,8.02
2023-12-19T08:08:35.685Z,8.01
2023-12-19T08:11:02.117Z,8.01
2023-12-19T08:13:30.354Z,8.01
2023-12-19T08:15:57.103Z,8.02
2023-12-19T08:18:23.676Z,8.02
2023-12-19T08:20:50.218Z,8.03
2023-12-19T08:23:16.735Z,8.02
2023-12-19T08:25:43.619Z,8.03
2023-12-19T08:28:10.530Z,8.02
2023-12-19T08:30:37.676Z,8.05
2023-12-19T08:33:04.667Z,8.04
2023-12-19T08:35:31.327Z,8.05
2023-12-19T08:37:57.864Z,8.05
2023-12-19T08:40:24.642Z,8.06
2023-12-19T08:42:51.154Z,8.06
2023-12-19T08:45:19.554Z,8.06
2023-12-19T08:47:47.759Z,8.06
2023-12-19T08:50:16.638Z,8.07
2023-12-19T08:52:44.157Z,8.10
2023-12-19T08:55:12.542Z,8.08
2023-12-19T08:57:43.390Z,8.08
2023-12-19T09:00:16.689Z,8.07
2023-12-19T09:02:47.560Z,8.08
2023-12-19T09:05:15.843Z,8.09
2023-12-19T09:07:43.569Z,8.10
2023-12-19T09:10:12.660Z,8.12
2023-12-19T09:12:39.445Z,8.11
2023-12-19T09:15:07.640Z,8.12
2023-12-19T09:17:34.941Z,8.17
2023-12-19T09:20:05.742Z,8.16
2023-12-19T09:22:33.192Z,8.13
2023-12-19T09:24:59.670Z,8.14
2023-12-19T09:27:26.282Z,8.13
2023-12-19T09:29:52.857Z,8.13
2023-12-19T09:32:19.861Z,8.14
2023-12-19T09:34:46.527Z,8.17
2023-12-19T09:37:13.037Z,8.17
2023-12-19T09:39:39.628Z,8.17
2023-12-19T09:42:07.738Z,8.17
2023-12-19T09:44:34.261Z,8.16
2023-12-19T09:47:00.749Z,8.17
2023-12-19T09:49:29.889Z,8.17
2023-12-19T09:51:58.935Z,8.16
2023-12-19T09:54:25.475Z,8.16
2023-12-19T09:56:53.579Z,8.19
2023-12-19T09:59:20.717Z,8.18
2023-12-19T10:01:47.864Z,8.17
2023-12-19T10:04:18.454Z,8.17
2023-12-19T10:06:59.789Z,8.18
2023-12-19T10:09:26.606Z,8.19
2023-12-19T10:12:10.922Z,8.20
2023-12-19T10:14:37.686Z,8.19
2023-12-19T10:17:05.747Z,8.18
2023-12-19T10:19:34.449Z,8.20
2023-12-19T10:22:08.992Z,8.20
2023-12-19T10:24:36.350Z,8.19
2023-12-19T10:27:04.323Z,8.20
2023-12-19T10:29:37.669Z,8.22
2023-12-19T10:32:14.260Z,8.22
2023-12-19T10:34:42.068Z,8.23
2023-12-19T10:37:13.177Z,8.23
2023-12-19T10:39:42.156Z,8.22
2023-12-19T10:42:10.825Z,8.24
2023-12-19T10:44:40.261Z,8.22
2023-12-19T10:47:11.564Z,8.21
2023-12-19T10:49:39.149Z,8.21
2023-12-19T10:52:09.126Z,8.21
2023-12-19T10:54:37.449Z,8.23
2023-12-19T10:57:16.986Z,8.21
2023-12-19T11:00:10.800Z,8.22
2023-12-19T11:03:11.356Z,8.22
2023-12-19T11:05:42.100Z,8.22
2023-12-19T11:08:19.373Z,8.22
2023-12-19T11:11:04.546Z,8.23
2023-12-19T11:13:33.792Z,8.25
2023-12-19T11:16:10.298Z,8.26
2023-12-19T11:18:51.904Z,8.25
2023-12-19T11:21:24.111Z,8.26
2023-12-19T11:24:04.469Z,8.25
2023-12-19T11:26:41.694Z,8.25
2023-12-19T11:29:08.343Z,8.23
2023-12-19T11:31:39.386Z,8.24
2023-12-19T11:34:23.250Z,8.26
2023-12-19T11:37:07.673Z,8.28
2023-12-19T11:39:41.256Z,8.31
2023-12-19T11:42:07.725Z,8.32
2023-12-19T11:44:35.499Z,8.36
2023-12-19T11:47:19.206Z,8.37
2023-12-19T11:49:46.567Z,8.37
2023-12-19T11:52:34.899Z,8.39
2023-12-19T11:55:05.488Z,8.38
2023-12-19T11:57:33.735Z,8.39
2023-12-19T12:00:01.465Z,8.37
2023-12-19T12:02:32.976Z,8.41
2023-12-19T12:05:03.560Z,8.45
2023-12-19T12:07:30.291Z,8.44
2023-12-19T12:10:07.586Z,8.43
2023-12-19T12:12:34.792Z,8.43
2023-12-19T12:15:20.271Z,8.44
2023-12-19T12:17:47.078Z,8.45
2023-12-19T12:20:15.600Z,8.47
2023-12-19T12:22:42.265Z,8.47
2023-12-19T12:25:11.246Z,8.48
2023-12-19T12:27:37.763Z,8.47
2023-12-19T12:30:10.675Z,8.46
2023-12-19T12:32:37.501Z,8.48
2023-12-19T12:35:24.891Z,8.51
2023-12-19T12:38:21.551Z,8.55
2023-12-19T12:41:02.063Z,8.54
2023-12-19T12:43:38.000Z,8.53
2023-12-19T12:46:15.235Z,8.53
2023-12-19T12:48:55.327Z,8.54
2023-12-19T12:51:22.474Z,8.53
2023-12-19T12:53:56.928Z,8.55
2023-12-19T12:56:35.806Z,8.53
2023-12-19T12:59:08.043Z,8.53
2023-12-19T13:01:38.059Z,8.54
2023-12-19T13:04:04.810Z,8.54
2023-12-19T13:06:31.943Z,8.54
2023-12-19T13:08:58.630Z,8.50
2023-12-19T13:11:25.396Z,8.48
2023-12-19T13:13:51.812Z,8.49
2023-12-19T13:16:18.378Z,8.51
2023-12-19T13:18:49.058Z,8.51
2023-12-19T13:21:15.842Z,8.54
2023-12-19T13:23:42.912Z,8.54
2023-12-19T13:26:09.852Z,8.53
2023-12-19T13:28:37.279Z,8.52
2023-12-19T13:31:09.410Z,8.54
2023-12-19T13:33:36.450Z,8.54
2023-12-19T13:36:03.273Z,8.55
2023-12-19T13:38:29.694Z,8.55
2023-12-19T13:40:56.153Z,8.56
2023-12-19T13:43:23.090Z,8.55
2023-12-19T13:45:49.617Z,8.56
2023-12-19T13:48:17.896Z,8.57
2023-12-19T13:50:44.538Z,8.57
2023-12-19T13:53:11.058Z,8.60
2023-12-19T13:55:37.645Z,8.61
2023-12-19T13:58:05.052Z,8.58
2023-12-19T14:00:33.164Z,8.57
2023-12-19T14:03:00.680Z,8.59
2023-12-19T14:05:29.154Z,8.60
2023-12-19T14:08:00.694Z,8.57
2023-12-19T14:10:27.361Z,8.58
2023-12-19T14:12:53.803Z,8.57
2023-12-19T14:15:20.666Z,8.58
2023-12-19T14:17:47.690Z,8.58
2023-12-19T14:20:14.989Z,8.57
2023-12-19T14:22:42.161Z,8.56
2023-12-19T14:25:10.013Z,8.56
2023-12-19T14:27:40.404Z,8.53
2023-12-19T14:30:09.637Z,8.56
2023-12-19T14:32:37.787Z,8.56
2023-12-19T14:35:06.080Z,8.57
2023-12-19T14:37:34.467Z,8.55
2023-12-19T14:40:00.927Z,8.54
2023-12-19T14:42:28.798Z,8.58
2023-12-19T14:44:56.930Z,8.58
2023-12-19T14:47:23.375Z,8.57
2023-12-19T14:49:51.893Z,8.59
2023-12-19T14:52:18.457Z,8.58
2023-12-19T14:54:46.887Z,8.59
2023-12-19T14:57:13.463Z,8.59
2023-12-19T14:59:40.814Z,8.60
2023-12-19T15:02:07.433Z,8.59
2023-12-19T15:04:36.160Z,8.60
2023-12-19T15:07:02.936Z,8.62
2023-12-19T15:09:29.650Z,8.63
2023-12-19T15:11:56.181Z,8.66
2023-12-19T15:14:23.453Z,8.68
2023-12-19T15:16:49.926Z,8.67
2023-12-19T15:19:16.516Z,8.67
2023-12-19T15:21:43.063Z,8.66
2023-12-19T15:24:09.766Z,8.69
2023-12-19T15:26:40.130Z,8.69
2023-12-19T15:29:09.476Z,8.69
2023-12-19T15:31:42.274Z,8.69
2023-12-19T15:34:09.985Z,8.72
2023-12-19T15:36:36.481Z,8.71
2023-12-19T15:39:03.756Z,8.70
2023-12-19T15:41:30.212Z,8.72
2023-12-19T15:44:04.759Z,8.71
2023-12-19T15:46:39.887Z,8.70
2023-12-19T15:49:09.644Z,8.70
2023-12-19T15:51:36.336Z,8.69
2023-12-19T15:54:04.576Z,8.70
2023-12-19T15:56:35.995Z,8.70
2023-12-19T15:59:04.761Z,8.67
2023-12-19T16:01:31.642Z,8.67
2023-12-19T16:03:58.387Z,8.68
2023-12-19T16:06:27.291Z,8.70
2023-12-19T16:08:54.371Z,8.70
2023-12-19T16:11:22.284Z,8.72
2023-12-19T16:13:50.723Z,8.72
2023-12-19T16:16:18.084Z,8.72
2023-12-19T16:18:45.813Z,8.76
2023-12-19T16:21:14.859Z,8.75
2023-12-19T16:23:53.097Z,8.74
2023-12-19T16:26:27.672Z,8.74
2023-12-19T16:28:54.132Z,8.75
2023-12-19T16:31:20.744Z,8.75
2023-12-19T16:33:47.536Z,8.77
2023-12-19T16:36:14.681Z,8.77
2023-12-19T16:38:43.121Z,8.75
2023-12-19T16:41:10.701Z,8.76
2023-12-19T16:43:38.269Z,8.74
2023-12-19T16:46:06.117Z,8.73
2023-12-19T16:48:33.087Z,8.75
2023-12-19T16:51:00.074Z,8.74
2023-12-19T16:53:26.803Z,8.74
2023-12-19T16:55:53.261Z,8.74
2023-12-19T16:58:22.729Z,8.76
2023-12-19T17:00:53.913Z,8.76
2023-12-19T17:03:20.483Z,8.76
2023-12-19T17:05:48.266Z,8.75
2023-12-19T17:08:14.711Z,8.75
2023-12-19T17:10:41.185Z,8.74
2023-12-19T17:13:07.671Z,8.76
2023-12-19T17:15:34.236Z,8.75
2023-12-19T17:18:00.721Z,8.73
2023-12-19T17:20:27.238Z,8.75
2023-12-19T17:22:54.725Z,8.76
2023-12-19T17:25:21.275Z,8.77
2023-12-19T17:27:48.114Z,8.77
2023-12-19T17:30:14.882Z,8.77
2023-12-19T17:32:43.746Z,8.81
2023-12-19T17:35:10.820Z,8.82
2023-12-19T17:37:38.180Z,8.79
2023-12-19T17:40:08.414Z,8.80
2023-12-19T17:42:35.848Z,8.81
2023-12-19T17:45:02.765Z,8.80
2023-12-19T17:47:29.200Z,8.80
2023-12-19T17:49:56.196Z,8.78
2023-12-19T17:52:22.732Z,8.78
2023-12-19T17:54:49.223Z,8.76
2023-12-19T17:57:15.649Z,8.74
2023-12-19T17:59:42.082Z,8.75
2023-12-19T18:02:08.637Z,8.75
2023-12-19T18:04:35.682Z,8.73
2023-12-19T18:07:04.234Z,8.75
2023-12-19T18:09:31.463Z,8.75
2023-12-19T18:12:00.744Z,8.76
2023-12-19T18:14:27.751Z,8.77
2023-12-19T18:16:55.260Z,8.78
2023-12-19T18:19:21.914Z,8.77
2023-12-19T18:21:51.350Z,8.75
2023-12-19T18:24:19.078Z,8.75
2023-12-19T18:26:45.506Z,8.75
2023-12-19T18:29:12.001Z,8.75
2023-12-19T18:31:38.495Z,8.74
2023-12-19T18:34:05.148Z,8.75
2023-12-19T18:36:31.833Z,8.76
2023-12-19T18:38:58.313Z,8.76
2023-12-19T18:41:24.802Z,8.74
2023-12-19T18:43:51.415Z,8.72
2023-12-19T18:46:18.486Z,8.74
2023-12-19T18:48:45.185Z,8.73
2023-12-19T18:51:14.411Z,8.71
2023-12-19T18:53:41.137Z,8.71
2023-12-19T18:56:09.436Z,8.71
2023-12-19T18:58:36.073Z,8.71
2023-12-19T19:01:05.851Z,8.68
2023-12-19T19:03:32.946Z,8.71
2023-12-19T19:05:59.395Z,8.72
2023-12-19T19:08:26.373Z,8.71
2023-12-19T19:10:54.356Z,8.69
2023-12-19T19:13:20.993Z,8.70
2023-12-19T19:15:48.543Z,8.70
2023-12-19T19:18:17.125Z,8.70
2023-12-19T19:20:43.888Z,8.70
2023-12-19T19:23:16.630Z,8.69
2023-12-19T19:25:44.220Z,8.69
2023-12-19T19:28:14.563Z,8.69
2023-12-19T19:30:42.679Z,8.68
2023-12-19T19:33:09.319Z,8.68
2023-12-19T19:35:36.704Z,8.66
2023-12-19T19:38:03.302Z,8.71
2023-12-19T19:40:38.462Z,8.68
2023-12-19T19:43:08.574Z,8.66
2023-12-19T19:45:35.090Z,8.63
2023-12-19T19:48:01.742Z,8.60
2023-12-19T19:50:28.589Z,8.61
2023-12-19T19:52:55.271Z,8.59
2023-12-19T19:55:24.873Z,8.58
2023-12-19T19:57:51.712Z,8.58
2023-12-19T20:00:19.162Z,8.73
2023-12-19T20:02:45.726Z,8.75
2023-12-19T20:05:13.557Z,8.67
2023-12-19T20:07:41.365Z,8.64
2023-12-19T20:10:08.805Z,8.66
2023-12-19T20:12:35.457Z,8.62
2023-12-19T20:15:02.463Z,8.59
2023-12-19T20:17:29.028Z,8.57
2023-12-19T20:19:55.750Z,8.49
2023-12-19T20:22:22.391Z,8.51
2023-12-19T20:24:51.264Z,8.45
2023-12-19T20:27:17.867Z,8.45
2023-12-19T20:29:44.651Z,8.43
2023-12-19T20:32:11.782Z,8.43
2023-12-19T20:34:38.332Z,8.33
2023-12-19T20:37:04.973Z,8.34
2023-12-19T20:39:31.561Z,8.31
2023-12-19T20:41:58.405Z,8.26
2023-12-19T20:44:25.542Z,8.23
2023-12-19T20:46:53.474Z,8.26
2023-12-19T20:49:20.264Z,8.25
2023-12-19T20:51:49.496Z,8.23
2023-12-19T20:54:20.085Z,8.11
2023-12-19T20:56:50.636Z,8.19
2023-12-19T20:59:17.186Z,8.17
2023-12-19T21:01:46.300Z,8.15
2023-12-19T21:04:13.350Z,8.16
2023-12-19T21:06:41.469Z,8.14
2023-12-19T21:09:10.694Z,8.09
2023-12-19T21:11:37.237Z,8.09
2023-12-19T21:14:03.786Z,8.05
2023-12-19T21:16:30.623Z,8.05
2023-12-19T21:18:57.256Z,8.03
2023-12-19T21:21:24.092Z,7.99
2023-12-19T21:23:51.839Z,7.94
2023-12-19T21:26:18.625Z,7.90
2023-12-19T21:28:45.129Z,7.88
2023-12-19T21:31:11.929Z,7.85
2023-12-19T21:33:38.740Z,7.80
2023-12-19T21:36:05.638Z,7.78
2023-12-19T21:38:32.282Z,7.74
2023-12-19T21:40:58.841Z,7.70
2023-12-19T21:43:25.348Z,7.67
2023-12-19T21:45:51.824Z,7.66
2023-12-19T21:48:18.390Z,7.66
2023-12-19T21:50:45.425Z,7.64
2023-12-19T21:53:12.017Z,7.61
2023-12-19T21:55:39.059Z,7.58
2023-12-19T21:58:05.949Z,7.52
2023-12-19T22:00:32.556Z,7.51
2023-12-19T22:02:59.033Z,7.48
2023-12-19T22:05:28.278Z,7.47
2023-12-19T22:07:54.699Z,7.45
2023-12-19T22:10:21.256Z,7.42
2023-12-19T22:12:47.753Z,7.39
2023-12-19T22:15:16.420Z,7.35
2023-12-19T22:17:43.193Z,7.34
2023-12-19T22:20:10.529Z,7.34
2023-12-19T22:22:37.056Z,7.33
2023-12-19T22:25:03.928Z,7.26
2023-12-19T22:27:30.364Z,7.23
2023-12-19T22:29:56.811Z,7.19
2023-12-19T22:32:23.208Z,7.17
2023-12-19T22:34:49.670Z,7.13
2023-12-19T22:37:16.359Z,7.08
2023-12-19T22:39:42.823Z,7.09
2023-12-19T22:42:09.272Z,7.07
2023-12-19T22:44:35.638Z,7.02
2023-12-19T22:47:02.106Z,6.98
2023-12-19T22:49:32.349Z,6.94
2023-12-19T22:51:59.069Z,6.94
2023-12-19T22:54:25.545Z,6.89
2023-12-19T22:56:52.002Z,6.85
2023-12-19T22:59:18.624Z,6.83
2023-12-19T23:01:53.206Z,6.78
2023-12-19T23:04:21.092Z,6.81
2023-12-19T23:06:47.657Z,6.79
2023-12-19T23:09:14.325Z,6.78
2023-12-19T23:11:40.784Z,6.80
2023-12-19T23:14:07.495Z,6.81
2023-12-19T23:16:34.222Z,6.81
2023-12-19T23:19:01.222Z,6.80
2023-12-19T23:21:28.089Z,6.77
2023-12-19T23:23:54.551Z,6.77
2023-12-19T23:26:21.555Z,6.77
2023-12-19T23:28:48.024Z,6.79
2023-12-19T23:31:18.313Z,6.80
2023-12-19T23:33:46.521Z,6.82
2023-12-19T23:36:19.497Z,6.83
2023-12-19T23:38:45.986Z,6.83
2023-12-19T23:41:19.062Z,6.80
2023-12-19T23:43:47.282Z,6.79
2023-12-19T23:46:22.533Z,6.81
2023-12-19T23:48:50.375Z,6.85
2023-12-19T23:51:18.211Z,6.83
2023-12-19T23:53:46.335Z,6.80
2023-12-19T23:56:13.319Z,6.79
2023-12-19T23:58:39.765Z,6.76
